Vozega, Russia
Current Conditions -  °F | °C
As of 10:00 PM on Friday 21 Nov 2014 (Local Time) from ULWC Reporting Station
Haze Haze  
Wind Chill: 19°   Ceiling: 100
Heat Index: 19°   Visibility: 1mi
Dew Point: 18°   Wind: 2mph
Humidity: 93%   Direction: 240°WSW
Pressure: 30.42"   Gusts: NA
Location:  60.47°N, 40.2°E
Report Text: ULWC 211900Z 24001MPS 1700 BR OVC001 M07/M08 Q1030 TEMPO 0500FZFG RMK QBB050 QFE762/1016 SC057
Loading
Personal Weather Stations






























Interactive Weather Map New forecast layout! Learn more

10-Day Weather Forecast

Advertisements
Track Severe Weather on mobile